Time;durP1;ratioP1;P1;durP2;ratioP2;P2;SDS_P1;SDS_P2;PMS_P1;PMS_P2;Temp;Humidity;BMP_temperature;BMP_pressure;BME280_temperature;BME280_humidity;BME280_pressure;Samples;Min_cycle;Max_cycle;Signal;HPM_P1;HPM_P2
2022/03/31 00:00:42;;;;;;;1.23;0.60;;;;;;;21.18;38.67;97325.06;5129769;28;20494;-61
2022/03/31 00:03:13;;;;;;;1.45;0.80;;;;;;;21.16;38.72;97316.38;5131694;27;20412;-61
2022/03/31 00:05:39;;;;;;;1.27;0.70;;;;;;;21.17;38.53;97315.94;5133687;28;20092;-61
2022/03/31 00:08:07;;;;;;;1.20;0.70;;;;;;;21.18;38.60;97308.38;5133336;28;20051;-61
2022/03/31 00:10:34;;;;;;;1.27;0.80;;;;;;;21.16;38.51;97311.59;5133192;28;20100;-62
2022/03/31 00:13:04;;;;;;;1.25;0.80;;;;;;;21.17;38.60;97315.16;5133053;28;20047;-62
2022/03/31 00:15:30;;;;;;;2.15;0.75;;;;;;;21.18;38.56;97308.38;5133122;28;20586;-62
2022/03/31 00:17:58;;;;;;;1.25;0.82;;;;;;;21.17;38.39;97298.47;5133097;28;20529;-62
2022/03/31 00:20:25;;;;;;;1.77;0.75;;;;;;;21.16;38.78;97296.91;5133110;28;20055;-61
2022/03/31 00:22:50;;;;;;;1.25;0.73;;;;;;;21.14;38.43;97288.97;5133280;28;20054;-62
2022/03/31 00:25:15;;;;;;;1.38;0.70;;;;;;;21.14;38.69;97297.31;5133060;28;20043;-62
2022/03/31 00:27:41;;;;;;;1.17;0.65;;;;;;;21.16;38.47;97285.78;5132984;28;20628;-61
2022/03/31 00:30:09;;;;;;;1.30;0.60;;;;;;;21.16;38.42;97296.91;5133176;28;20051;-62
2022/03/31 00:32:36;;;;;;;1.67;0.73;;;;;;;21.15;38.38;97282.22;5132930;28;20166;-61
2022/03/31 00:35:01;;;;;;;1.15;0.70;;;;;;;21.13;38.33;97284.63;5133112;28;20395;-61
2022/03/31 00:37:27;;;;;;;1.83;0.77;;;;;;;21.13;38.48;97287.41;5132861;28;20494;-61
2022/03/31 00:39:54;;;;;;;1.58;0.80;;;;;;;21.16;38.61;97291.34;5132910;28;20046;-61
2022/03/31 00:42:19;;;;;;;2.08;0.90;;;;;;;21.13;38.64;97283.84;5132921;28;20050;-61
2022/03/31 00:44:45;;;;;;;1.63;0.80;;;;;;;21.14;38.54;97286.19;5133007;28;20047;-62
2022/03/31 00:47:10;;;;;;;2.60;1.20;;;;;;;21.12;38.63;97280.28;5132726;28;20044;-61
2022/03/31 00:49:36;;;;;;;1.63;1.00;;;;;;;21.14;39.03;97271.50;5132509;28;20046;-56
2022/03/31 00:52:02;;;;;;;2.20;1.27;;;;;;;21.13;38.76;97270.72;5132835;28;20039;-56
2022/03/31 00:54:27;;;;;;;2.10;1.20;;;;;;;21.15;38.76;97267.56;5132766;28;20071;-56
2022/03/31 00:56:55;;;;;;;1.83;1.00;;;;;;;21.11;38.95;97264.84;5132721;28;20414;-56
2022/03/31 00:59:21;;;;;;;2.45;1.13;;;;;;;21.13;38.97;97269.97;5132411;28;20563;-55
2022/03/31 01:01:48;;;;;;;1.70;0.95;;;;;;;21.09;38.70;97264.47;5132554;28;20118;-56
2022/03/31 01:04:14;;;;;;;1.85;1.00;;;;;;;21.12;38.72;97262.84;5132441;28;20130;-56
2022/03/31 01:06:44;;;;;;;1.80;0.98;;;;;;;21.13;38.48;97262.41;5132689;28;20147;-56
2022/03/31 01:09:12;;;;;;;1.98;1.05;;;;;;;21.11;38.80;97255.72;5132071;28;20058;-56
2022/03/31 01:11:37;;;;;;;1.70;1.00;;;;;;;21.11;38.38;97255.72;5122140;28;20140;-56
2022/03/31 01:14:03;;;;;;;1.38;0.73;;;;;;;21.12;38.36;97260.84;5110688;28;20071;-55
2022/03/31 01:16:31;;;;;;;1.48;0.90;;;;;;;21.12;38.49;97246.16;5111646;28;20039;-56
2022/03/31 01:18:57;;;;;;;1.33;0.80;;;;;;;21.11;38.20;97253.72;5111532;28;20036;-56
2022/03/31 01:21:22;;;;;;;1.15;0.73;;;;;;;21.12;38.22;97262.84;5111878;28;20119;-56
2022/03/31 01:23:48;;;;;;;1.52;0.80;;;;;;;21.13;38.11;97247.72;5111825;28;20047;-56
2022/03/31 01:26:14;;;;;;;1.00;0.70;;;;;;;21.10;38.24;97246.59;5111768;28;20078;-56
2022/03/31 01:28:42;;;;;;;2.25;0.90;;;;;;;21.11;38.05;97250.94;5111351;28;20056;-56
2022/03/31 01:31:08;;;;;;;1.20;0.65;;;;;;;21.12;38.11;97241.38;5111540;28;20040;-56
2022/03/31 01:33:34;;;;;;;1.33;0.80;;;;;;;21.12;38.01;97240.59;5111319;28;20039;-56
2022/03/31 01:36:01;;;;;;;0.90;0.60;;;;;;;21.12;38.01;97244.16;5111421;28;20380;-56
2022/03/31 01:38:26;;;;;;;1.67;0.90;;;;;;;21.12;37.75;97240.59;5114262;27;20048;-61
2022/03/31 01:40:51;;;;;;;1.38;0.75;;;;;;;21.12;37.87;97235.03;5132136;28;20049;-62
2022/03/31 01:43:17;;;;;;;1.30;0.85;;;;;;;21.11;38.04;97234.25;5132006;28;20047;-62
2022/03/31 01:45:43;;;;;;;1.02;0.60;;;;;;;21.11;37.71;97233.47;5131935;28;20430;-61
2022/03/31 01:48:08;;;;;;;1.20;0.70;;;;;;;21.11;37.79;97230.69;5114230;28;20040;-62
2022/03/31 01:50:34;;;;;;;1.73;0.70;;;;;;;21.11;37.78;97225.91;5131826;28;20039;-61
2022/03/31 01:52:59;;;;;;;1.48;0.75;;;;;;;21.12;37.99;97230.25;5131726;28;20058;-62
2022/03/31 01:55:25;;;;;;;1.35;0.70;;;;;;;21.11;37.86;97233.47;5131689;28;20054;-62
2022/03/31 01:57:50;;;;;;;1.40;0.80;;;;;;;21.11;38.06;97222.34;5131797;28;20043;-62
2022/03/31 02:00:16;;;;;;;1.70;0.88;;;;;;;21.09;37.50;97222.78;5131655;28;20392;-61
2022/03/31 02:02:43;;;;;;;1.13;0.73;;;;;;;21.11;37.85;97228.69;5131507;28;20084;-61
2022/03/31 02:05:10;;;;;;;1.83;0.70;;;;;;;21.12;37.64;97226.69;5131687;28;20043;-61
2022/03/31 02:07:36;;;;;;;1.38;0.77;;;;;;;21.12;37.59;97223.91;5131703;28;20043;-62
2022/03/31 02:10:03;;;;;;;1.83;0.68;;;;;;;21.11;37.44;97216.78;5131199;28;20072;-61
2022/03/31 02:12:29;;;;;;;0.95;0.63;;;;;;;21.09;37.53;97210.88;5131573;28;20076;-61
2022/03/31 02:14:54;;;;;;;0.95;0.52;;;;;;;21.11;37.31;97206.47;5131352;28;20077;-62
2022/03/31 02:17:19;;;;;;;1.55;0.80;;;;;;;21.10;37.38;97207.69;5131482;28;20050;-61
2022/03/31 02:19:45;;;;;;;0.90;0.60;;;;;;;21.10;37.18;97210.44;5131194;28;20087;-62
2022/03/31 02:22:10;;;;;;;1.33;0.73;;;;;;;21.10;37.59;97199.34;5131335;28;20047;-62
2022/03/31 02:24:36;;;;;;;1.00;0.60;;;;;;;21.09;37.63;97206.09;5131223;28;20035;-62
2022/03/31 02:27:03;;;;;;;2.35;0.80;;;;;;;21.10;37.44;97199.34;5130984;27;20503;-62
2022/03/31 02:29:28;;;;;;;0.98;0.70;;;;;;;21.08;37.45;97193.44;5131137;28;20047;-62
2022/03/31 02:31:53;;;;;;;2.00;0.90;;;;;;;21.07;37.37;97189.06;5131159;28;20047;-61
2022/03/31 02:34:19;;;;;;;1.48;0.70;;;;;;;21.10;37.51;97191.00;5130943;28;20058;-61
2022/03/31 02:36:46;;;;;;;1.90;0.90;;;;;;;21.08;37.34;97187.88;5131091;28;20050;-62
2022/03/31 02:39:12;;;;;;;1.55;0.82;;;;;;;21.08;37.00;97175.97;5130959;28;20039;-61
2022/03/31 02:41:38;;;;;;;1.48;0.80;;;;;;;21.09;37.09;97183.09;5130994;28;20196;-61
2022/03/31 02:44:05;;;;;;;1.60;0.93;;;;;;;21.09;37.38;97174.75;5130928;28;20050;-62
2022/03/31 02:46:31;;;;;;;1.25;0.60;;;;;;;21.08;37.04;97176.75;5130838;28;20130;-61
2022/03/31 02:48:59;;;;;;;1.20;0.70;;;;;;;21.08;37.50;97184.31;5130865;28;20176;-62
2022/03/31 02:51:25;;;;;;;1.20;0.80;;;;;;;21.09;37.52;97177.53;5130749;28;20107;-61
2022/03/31 02:56:35;;;;;;;1.90;0.80;;;;;;;21.05;37.38;97166.47;5130872;28;20062;-61
2022/03/31 02:59:01;;;;;;;2.17;1.05;;;;;;;21.09;37.76;97172.75;5130707;28;20048;-62
2022/03/31 03:01:30;;;;;;;0.90;0.60;;;;;;;21.07;37.52;97175.16;5130728;28;20039;-62
2022/03/31 03:03:58;;;;;;;1.50;0.80;;;;;;;21.08;37.78;97175.97;5130748;28;20548;-56
2022/03/31 03:06:24;;;;;;;1.83;0.90;;;;;;;21.08;37.95;97173.19;5130784;28;20064;-56
2022/03/31 03:08:49;;;;;;;2.05;1.00;;;;;;;21.06;37.94;97170.03;5130600;28;20054;-56
2022/03/31 03:11:17;;;;;;;1.00;0.70;;;;;;;21.07;38.04;97171.59;5130262;28;20598;-56
2022/03/31 03:13:43;;;;;;;1.60;0.90;;;;;;;21.04;37.97;97164.91;5129563;28;20042;-56
2022/03/31 03:16:09;;;;;;;1.83;1.00;;;;;;;21.06;38.27;97165.25;5130438;28;20495;-56
2022/03/31 03:18:35;;;;;;;1.95;0.90;;;;;;;21.09;38.16;97166.41;5130495;28;20050;-56
2022/03/31 03:21:01;;;;;;;1.23;0.82;;;;;;;21.08;37.96;97167.63;5130311;28;20091;-56
2022/03/31 03:23:27;;;;;;;1.40;1.00;;;;;;;21.08;38.22;97164.84;5130166;28;20126;-56
2022/03/31 03:25:52;;;;;;;2.85;1.10;;;;;;;21.06;38.17;97161.69;5111911;28;20047;-56
2022/03/31 03:28:18;;;;;;;1.38;1.00;;;;;;;21.09;38.38;97158.84;5130337;28;20554;-56
2022/03/31 03:30:43;;;;;;;1.48;0.88;;;;;;;21.09;38.16;97163.63;5130124;28;20059;-56
2022/03/31 03:33:08;;;;;;;1.92;0.98;;;;;;;21.09;38.49;97169.19;5130062;28;20043;-56
2022/03/31 03:35:34;;;;;;;2.08;1.23;;;;;;;21.07;38.28;97157.69;5129234;28;20059;-56
2022/03/31 03:38:00;;;;;;;1.63;1.05;;;;;;;21.09;38.29;97166.41;5113700;28;20039;-56
2022/03/31 03:40:25;;;;;;;1.88;1.00;;;;;;;21.08;38.47;97160.06;5133867;28;20043;-56
2022/03/31 03:42:53;;;;;;;2.17;1.20;;;;;;;21.09;38.32;97172.75;5115648;28;20035;-56
2022/03/31 03:45:19;;;;;;;1.80;1.13;;;;;;;21.11;38.37;97156.41;5134027;28;20051;-56
2022/03/31 03:47:44;;;;;;;1.73;1.20;;;;;;;21.08;38.50;97151.72;5134057;28;20134;-56
2022/03/31 03:50:11;;;;;;;1.75;1.13;;;;;;;21.10;38.59;97156.84;5133793;28;20044;-56
2022/03/31 03:52:37;;;;;;;2.63;1.27;;;;;;;21.11;38.62;97150.09;5133657;28;20054;-56
2022/03/31 03:55:03;;;;;;;2.05;1.35;;;;;;;21.07;38.69;97146.59;5133420;28;20039;-56
2022/03/31 03:57:29;;;;;;;2.03;1.20;;;;;;;21.11;38.93;97150.09;5133620;28;20039;-56
2022/03/31 03:59:54;;;;;;;1.95;1.00;;;;;;;21.11;38.55;97152.84;5133645;28;20503;-56
2022/03/31 04:02:20;;;;;;;2.13;1.30;;;;;;;21.10;38.85;97151.31;5133492;28;20047;-56
2022/03/31 04:04:46;;;;;;;1.90;1.30;;;;;;;21.10;38.59;97154.06;5133346;28;20048;-56
2022/03/31 04:07:11;;;;;;;1.92;1.20;;;;;;;21.10;38.80;97154.84;5133564;28;20055;-56
2022/03/31 04:09:36;;;;;;;2.15;1.20;;;;;;;21.13;38.73;97158.75;5133504;28;20047;-56
2022/03/31 04:12:02;;;;;;;1.90;1.02;;;;;;;21.12;38.93;97157.19;5133358;28;20058;-55
2022/03/31 04:14:28;;;;;;;2.15;1.27;;;;;;;21.10;38.75;97154.84;5133204;28;20403;-56
2022/03/31 04:16:55;;;;;;;2.25;1.30;;;;;;;21.12;39.04;97159.97;5133444;28;20587;-56
2022/03/31 04:19:21;;;;;;;1.88;1.15;;;;;;;21.12;39.01;97151.66;5133017;28;20421;-56
2022/03/31 04:21:46;;;;;;;2.05;1.02;;;;;;;21.11;38.80;97161.19;5133201;28;20502;-61
2022/03/31 04:24:12;;;;;;;2.15;1.30;;;;;;;21.11;38.96;97156.41;5133365;28;20096;-61
2022/03/31 04:26:37;;;;;;;2.47;1.38;;;;;;;21.11;38.95;97150.09;5133336;28;20039;-62
2022/03/31 04:29:08;;;;;;;2.47;1.38;;;;;;;21.12;38.83;97157.19;5133185;28;20542;-61
2022/03/31 04:31:35;;;;;;;1.98;1.10;;;;;;;21.10;39.05;97159.63;5133003;28;20123;-61
2022/03/31 04:34:01;;;;;;;2.00;1.10;;;;;;;21.11;39.14;97155.63;5132946;28;20130;-61
2022/03/31 04:36:26;;;;;;;2.20;1.30;;;;;;;21.10;39.25;97157.63;5132949;28;20134;-61
2022/03/31 04:38:51;;;;;;;1.92;1.20;;;;;;;21.12;38.93;97148.84;5132925;28;20043;-62
2022/03/31 04:41:17;;;;;;;1.67;1.10;;;;;;;21.12;38.96;97152.41;5132956;28;20578;-62
2022/03/31 04:43:42;;;;;;;1.85;1.20;;;;;;;21.10;39.15;97149.31;5133016;28;20051;-62
2022/03/31 04:46:08;;;;;;;1.88;1.13;;;;;;;21.12;39.15;97149.66;5132506;28;20043;-61
2022/03/31 04:48:35;;;;;;;2.13;1.10;;;;;;;21.14;39.25;97149.19;5131994;27;20047;-62
2022/03/31 04:51:01;;;;;;;1.73;1.10;;;;;;;21.12;39.15;97137.75;5132223;28;20449;-61
2022/03/31 04:53:26;;;;;;;2.70;1.10;;;;;;;21.14;39.13;97143.66;5132583;28;20043;-62
2022/03/31 04:55:52;;;;;;;2.00;1.10;;;;;;;21.14;39.07;97149.97;5132649;28;20104;-62
2022/03/31 04:58:17;;;;;;;2.35;1.20;;;;;;;21.15;39.04;97146.03;5132858;28;20039;-62
2022/03/31 05:00:43;;;;;;;1.88;1.02;;;;;;;21.13;39.13;97142.88;5132542;28;20076;-62
2022/03/31 05:03:08;;;;;;;1.70;1.10;;;;;;;21.14;39.15;97149.97;5132803;28;20706;-62
2022/03/31 05:05:34;;;;;;;1.70;1.00;;;;;;;21.17;38.95;97151.13;5132768;28;20052;-62
2022/03/31 05:07:59;;;;;;;1.80;1.08;;;;;;;21.17;38.96;97157.47;5132686;28;20043;-62
2022/03/31 05:10:25;;;;;;;2.30;1.10;;;;;;;21.14;38.78;97144.44;5132395;28;20436;-62
2022/03/31 05:12:50;;;;;;;1.67;0.98;;;;;;;21.14;39.00;97146.44;5132443;28;20050;-62
2022/03/31 05:15:15;;;;;;;1.13;0.90;;;;;;;21.17;38.88;97154.69;5132095;28;20046;-62
2022/03/31 05:17:41;;;;;;;1.58;0.98;;;;;;;21.19;39.02;97151.47;5132091;28;20446;-63
2022/03/31 05:20:09;;;;;;;3.47;1.10;;;;;;;21.23;39.26;97148.63;5132328;28;20132;-62
2022/03/31 05:22:35;;;;;;;1.60;0.80;;;;;;;21.21;38.90;97148.25;5132259;28;20554;-62
2022/03/31 05:25:01;;;;;;;3.60;1.10;;;;;;;21.19;39.00;97145.91;5131886;28;20391;-62
2022/03/31 05:27:27;;;;;;;1.45;0.82;;;;;;;21.20;39.12;97158.59;5132080;28;20044;-62
2022/03/31 05:29:52;;;;;;;1.77;0.90;;;;;;;21.18;38.95;97149.91;5132213;28;20050;-62
2022/03/31 05:32:17;;;;;;;0.80;0.60;;;;;;;21.17;39.33;97142.78;5132202;28;20054;-62
2022/03/31 05:34:43;;;;;;;1.33;0.77;;;;;;;21.19;39.00;97154.25;5131790;28;20197;-62
2022/03/31 05:37:08;;;;;;;1.35;0.90;;;;;;;21.19;39.29;97147.91;5132152;28;20043;-62
2022/03/31 05:39:34;;;;;;;1.85;1.00;;;;;;;21.19;39.09;97145.13;5131872;28;20043;-62
2022/03/31 05:42:00;;;;;;;1.25;0.80;;;;;;;21.15;39.11;97136.91;5113493;28;20046;-62
2022/03/31 05:44:25;;;;;;;1.52;0.80;;;;;;;21.18;39.26;97144.34;5131592;28;20185;-62
2022/03/31 05:46:51;;;;;;;1.73;0.95;;;;;;;21.16;39.11;97144.03;5131725;28;20046;-62
2022/03/31 05:49:17;;;;;;;2.40;0.90;;;;;;;21.17;38.97;97149.13;5131745;28;20051;-62
2022/03/31 05:51:43;;;;;;;2.70;1.15;;;;;;;21.18;39.04;97149.91;5131612;28;20043;-62
2022/03/31 05:54:10;;;;;;;1.38;0.80;;;;;;;21.19;39.01;97154.25;5131913;28;20044;-62
2022/03/31 05:56:36;;;;;;;2.20;1.00;;;;;;;21.19;39.30;97156.25;5131559;28;20039;-62
2022/03/31 05:59:01;;;;;;;1.75;0.80;;;;;;;21.19;39.44;97153.47;5131823;28;20039;-61
2022/03/31 06:01:27;;;;;;;2.10;1.05;;;;;;;21.19;39.36;97153.47;5130911;27;20657;-62
2022/03/31 06:03:55;;;;;;;1.20;0.75;;;;;;;21.17;39.28;97157.47;5130543;28;20039;-62
2022/03/31 06:06:21;;;;;;;1.65;0.90;;;;;;;21.16;39.48;97142.03;5130876;28;20477;-62
2022/03/31 06:08:47;;;;;;;1.65;0.93;;;;;;;21.19;39.45;97159.81;5131553;28;20622;-62
2022/03/31 06:11:13;;;;;;;1.45;0.90;;;;;;;21.17;39.40;97154.69;5131455;28;20084;-62
2022/03/31 06:13:38;;;;;;;1.73;1.00;;;;;;;21.17;39.53;97156.69;5131407;28;20043;-62
2022/03/31 06:16:04;;;;;;;1.33;0.75;;;;;;;21.19;39.17;97154.25;5130714;28;20039;-61
2022/03/31 06:18:30;;;;;;;1.30;0.90;;;;;;;21.21;39.41;97162.16;5131624;27;20127;-62
2022/03/31 06:20:56;;;;;;;1.48;0.98;;;;;;;21.18;39.52;97155.47;5116939;28;20027;-62
2022/03/31 06:23:22;;;;;;;1.75;0.98;;;;;;;21.18;39.40;97158.25;5124124;27;20054;-62
2022/03/31 06:25:50;;;;;;;1.60;0.95;;;;;;;21.19;39.80;97157.03;5128040;28;20035;-62
2022/03/31 06:28:16;;;;;;;1.42;0.80;;;;;;;21.16;39.82;97155.91;5122901;27;20091;-62
2022/03/31 06:30:41;;;;;;;1.75;0.95;;;;;;;21.17;39.78;97157.47;5120998;28;20048;-63
2022/03/31 06:33:07;;;;;;;1.17;0.80;;;;;;;21.21;39.47;97165.72;5130132;27;20380;-62
2022/03/31 06:35:33;;;;;;;1.35;0.82;;;;;;;21.20;39.71;97158.59;5119561;28;20429;-62
2022/03/31 06:37:59;;;;;;;1.70;0.95;;;;;;;21.19;40.01;97162.59;5121631;27;20032;-62
2022/03/31 06:40:25;;;;;;;1.27;0.90;;;;;;;21.19;40.08;97165.38;5124541;27;20043;-62
2022/03/31 06:42:50;;;;;;;1.75;1.13;;;;;;;21.20;40.14;97163.38;5126617;27;20567;-56
2022/03/31 06:45:16;;;;;;;1.95;1.20;;;;;;;21.21;40.15;97170.50;5122764;27;20043;-56
2022/03/31 06:47:45;;;;;;;2.03;1.25;;;;;;;21.21;40.04;97159.38;5116726;27;20074;-56
2022/03/31 06:50:13;;;;;;;1.58;0.93;;;;;;;21.20;39.94;97166.94;5124193;27;20118;-55
2022/03/31 06:52:39;;;;;;;1.60;1.10;;;;;;;21.21;40.22;97165.72;5118652;27;20039;-56
2022/03/31 06:55:05;;;;;;;2.10;1.10;;;;;;;21.22;40.26;97167.31;5118199;27;20031;-55
2022/03/31 06:57:30;;;;;;;2.30;1.10;;;;;;;21.23;39.94;97166.09;5125565;27;20491;-56
2022/03/31 06:59:56;;;;;;;1.50;0.90;;;;;;;21.25;40.09;97166.44;5119640;27;20039;-56
2022/03/31 07:02:21;;;;;;;1.75;1.00;;;;;;;21.23;40.34;97162.53;5097796;28;20040;-56
2022/03/31 07:04:46;;;;;;;1.83;1.20;;;;;;;21.24;40.22;97164.09;5126489;28;20568;-56
2022/03/31 07:07:12;;;;;;;1.90;1.20;;;;;;;21.22;40.19;97158.97;5124986;27;20440;-56
2022/03/31 07:09:37;;;;;;;2.42;1.25;;;;;;;21.23;40.28;97154.97;5113786;27;20083;-56
2022/03/31 07:12:04;;;;;;;3.03;1.15;;;;;;;21.26;40.31;97161.66;5091887;28;20043;-56
2022/03/31 07:14:33;;;;;;;2.13;1.15;;;;;;;21.27;40.18;97158.44;5108778;28;20053;-56
2022/03/31 07:16:59;;;;;;;3.85;0.98;;;;;;;21.26;40.26;97161.66;5111153;27;20046;-56
2022/03/31 07:19:24;;;;;;;2.13;1.20;;;;;;;21.24;40.53;97164.88;5113233;27;20461;-56
2022/03/31 07:21:51;;;;;;;2.58;1.00;;;;;;;21.27;40.31;97174.34;5116742;27;20051;-56
2022/03/31 07:24:17;;;;;;;1.60;0.90;;;;;;;21.23;40.60;97168.88;5115753;27;20043;-56
2022/03/31 07:26:42;;;;;;;2.22;0.98;;;;;;;21.25;40.18;97171.22;5109893;27;21049;-56
2022/03/31 07:29:09;;;;;;;2.20;1.05;;;;;;;21.23;40.38;97174.44;5103721;27;20040;-57
2022/03/31 07:31:34;;;;;;;6.53;2.75;;;;;;;21.24;40.30;97178.00;5091708;27;20150;-58
2022/03/31 07:34:00;;;;;;;13.57;6.07;;;;;;;21.21;40.07;97170.50;5109487;27;20118;-58
2022/03/31 07:36:26;;;;;;;9.77;5.93;;;;;;;21.19;40.42;97179.28;5096082;28;20079;-55
2022/03/31 07:38:51;;;;;;;9.75;4.82;;;;;;;21.19;40.31;97172.94;5119028;28;20043;-56
2022/03/31 07:41:17;;;;;;;9.55;4.88;;;;;;;21.20;40.40;97175.28;5122594;27;20050;-56
2022/03/31 07:43:44;;;;;;;7.38;3.88;;;;;;;21.19;40.49;97173.72;5117694;27;20427;-56
2022/03/31 07:46:10;;;;;;;5.30;3.72;;;;;;;21.19;40.52;97173.72;5116129;27;20050;-56
2022/03/31 07:48:38;;;;;;;6.32;3.38;;;;;;;21.18;40.54;97166.59;5108194;27;20048;-56
2022/03/31 07:51:04;;;;;;;7.07;3.20;;;;;;;21.19;40.71;97176.50;5103388;27;20044;-55
2022/03/31 07:53:33;;;;;;;5.95;3.10;;;;;;;21.19;40.85;97176.50;5107786;27;20151;-56
2022/03/31 07:56:05;;;;;;;4.90;2.60;;;;;;;21.18;40.62;97172.16;5108323;27;20073;-56
2022/03/31 07:58:31;;;;;;;5.82;2.70;;;;;;;21.79;39.86;97165.19;5107111;27;20039;-56
2022/03/31 08:00:58;;;;;;;4.90;2.40;;;;;;;22.61;38.29;97169.38;5110477;28;20051;-56
2022/03/31 08:03:24;;;;;;;3.63;2.25;;;;;;;23.38;37.19;97169.53;5122319;28;20491;-56
2022/03/31 08:05:50;;;;;;;3.35;2.03;;;;;;;23.46;36.66;97162.50;5120682;28;20039;-56
2022/03/31 08:08:16;;;;;;;3.13;1.63;;;;;;;23.00;37.41;97171.09;5116356;27;20046;-56
2022/03/31 08:10:41;;;;;;;3.17;1.70;;;;;;;22.62;38.22;97170.16;5121396;28;20055;-56
2022/03/31 08:13:08;;;;;;;3.13;1.85;;;;;;;22.31;38.78;97178.97;5115394;28;20142;-56
2022/03/31 08:15:34;;;;;;;5.57;1.75;;;;;;;22.03;39.21;97176.91;5111710;28;20148;-56
2022/03/31 08:18:00;;;;;;;3.47;1.80;;;;;;;21.85;39.34;97177.34;5117868;28;20040;-56
2022/03/31 08:20:27;;;;;;;5.00;1.40;;;;;;;21.69;39.71;97178.16;5118602;28;20456;-57
2022/03/31 08:22:52;;;;;;;3.30;1.65;;;;;;;21.60;40.16;97169.63;5108846;27;20046;-62
2022/03/31 08:25:18;;;;;;;2.25;1.30;;;;;;;21.52;40.41;97174.59;5119544;28;20402;-62
2022/03/31 08:27:45;;;;;;;3.08;1.58;;;;;;;21.46;40.32;97165.19;5116514;28;20556;-62
2022/03/31 08:30:14;;;;;;;3.72;1.52;;;;;;;21.40;40.41;97178.81;5095157;28;20052;-62
2022/03/31 08:32:42;;;;;;;4.47;1.60;;;;;;;21.41;40.61;97179.59;5116137;28;20044;-56
2022/03/31 08:35:08;;;;;;;5.25;1.45;;;;;;;21.38;40.46;97172.91;5119700;28;20050;-56
2022/03/31 08:37:35;;;;;;;2.55;1.27;;;;;;;21.35;40.75;97170.22;5120497;28;20051;-56
2022/03/31 08:40:00;;;;;;;2.08;1.30;;;;;;;21.33;40.79;97179.00;5123592;28;20492;-56
2022/03/31 08:42:26;;;;;;;2.72;1.30;;;;;;;21.30;40.89;97168.75;5117621;28;20054;-57
2022/03/31 08:44:53;;;;;;;2.47;1.30;;;;;;;21.29;40.97;97183.88;5116403;28;20531;-57
2022/03/31 08:47:19;;;;;;;3.97;1.20;;;;;;;21.28;41.05;97181.50;5121961;28;20035;-56
2022/03/31 08:49:46;;;;;;;3.45;1.30;;;;;;;21.26;40.80;97173.56;5119631;28;20047;-56
2022/03/31 08:52:12;;;;;;;4.30;1.77;;;;;;;21.25;40.98;97176.78;5118659;28;20048;-57
2022/03/31 08:54:39;;;;;;;1.90;1.10;;;;;;;21.25;41.11;97174.78;5114830;28;20119;-56
2022/03/31 08:57:05;;;;;;;1.60;1.10;;;;;;;21.23;41.02;97174.44;5123655;28;20084;-56
2022/03/31 08:59:31;;;;;;;2.70;1.40;;;;;;;21.24;40.96;97175.22;5122591;28;20446;-57
2022/03/31 09:01:57;;;;;;;3.38;1.02;;;;;;;21.23;41.19;97171.66;5123461;28;20058;-57
2022/03/31 09:04:24;;;;;;;6.65;1.25;;;;;;;21.26;41.29;97172.78;5119273;28;20103;-57
2022/03/31 09:07:07;;;;;;;1.92;0.98;;;;;;;21.24;41.16;97172.44;5118034;28;20047;-57
2022/03/31 09:09:47;;;;;;;4.47;1.23;;;;;;;21.23;41.27;97176.44;5120740;28;20148;-56
2022/03/31 09:12:13;;;;;;;4.78;1.30;;;;;;;21.24;41.03;97178.00;5111237;28;20047;-57
2022/03/31 09:14:39;;;;;;;4.78;1.35;;;;;;;21.23;40.91;97180.00;5122433;28;20039;-57
2022/03/31 09:17:17;;;;;;;2.67;1.10;;;;;;;21.23;41.10;97177.22;5120160;28;20071;-56
2022/03/31 09:19:43;;;;;;;3.42;1.50;;;;;;;21.25;41.21;97172.00;5109615;28;20043;-56
2022/03/31 09:22:09;;;;;;;2.58;1.20;;;;;;;21.25;40.76;97179.56;5106384;28;20805;-56
2022/03/31 09:24:35;;;;;;;6.55;1.35;;;;;;;21.25;40.85;97180.34;5099699;28;20458;-56
2022/03/31 09:27:02;;;;;;;2.25;1.27;;;;;;;21.24;41.01;97184.34;5124038;28;20042;-57
2022/03/31 09:29:29;;;;;;;2.63;1.27;;;;;;;21.24;40.88;97194.69;5108770;27;20070;-56
2022/03/31 09:32:10;;;;;;;2.58;1.33;;;;;;;21.22;41.33;97200.69;5111946;28;20059;-56
2022/03/31 09:34:45;;;;;;;2.70;1.30;;;;;;;21.24;40.98;97198.25;5118424;28;20049;-57
2022/03/31 09:37:12;;;;;;;3.10;1.15;;;;;;;21.24;40.93;97201.03;5120025;28;20470;-56
2022/03/31 09:39:39;;;;;;;4.57;1.42;;;;;;;21.25;40.91;97201.81;5116737;28;20128;-57
2022/03/31 09:42:17;;;;;;;2.85;1.15;;;;;;;21.21;41.18;97209.44;5121432;28;20039;-57
2022/03/31 09:44:42;;;;;;;3.58;1.05;;;;;;;21.21;41.30;97203.88;5119985;28;20040;-56
2022/03/31 09:47:09;;;;;;;3.17;1.00;;;;;;;21.16;40.93;97192.06;5123138;28;20464;-56
2022/03/31 09:49:35;;;;;;;1.83;0.90;;;;;;;21.16;41.14;97189.28;5124152;28;20043;-56
2022/03/31 09:52:07;;;;;;;2.25;1.20;;;;;;;21.14;41.04;97182.56;5125957;28;20054;-57
2022/03/31 09:54:33;;;;;;;3.33;1.17;;;;;;;21.14;41.29;97186.13;5123583;28;20491;-56
2022/03/31 09:57:01;;;;;;;3.63;1.10;;;;;;;21.13;41.44;97186.56;5120281;27;20040;-57
2022/03/31 09:59:33;;;;;;;1.63;0.85;;;;;;;21.11;41.47;97187.00;5115573;27;20055;-56
2022/03/31 10:02:00;;;;;;;2.47;0.90;;;;;;;21.12;41.42;97182.22;5120545;28;20126;-57
2022/03/31 10:04:26;;;;;;;3.15;1.20;;;;;;;21.11;41.48;97177.88;5110802;28;20071;-56
2022/03/31 10:06:52;;;;;;;3.05;1.10;;;;;;;21.10;41.37;97177.09;5118406;28;20444;-57
2022/03/31 10:09:19;;;;;;;1.85;0.90;;;;;;;21.10;41.34;97171.53;5124387;28;20062;-56
2022/03/31 10:11:55;;;;;;;1.48;0.82;;;;;;;21.14;41.71;97172.22;5122130;27;20039;-56
2022/03/31 10:14:54;;;;;;;1.73;1.02;;;;;;;21.16;41.50;97166.25;5118789;27;20051;-57
2022/03/31 10:17:26;;;;;;;1.70;0.70;;;;;;;21.16;41.70;97163.47;5120664;28;20048;-57
2022/03/31 10:19:52;;;;;;;1.88;0.90;;;;;;;21.16;41.54;97172.59;5120821;28;20073;-56
2022/03/31 10:25:09;;;;;;;1.98;0.90;;;;;;;21.15;41.82;97178.59;5112052;28;20171;-62
2022/03/31 10:27:40;;;;;;;1.27;0.80;;;;;;;21.15;41.84;97167.47;5114869;28;20197;-62
2022/03/31 10:30:23;;;;;;;1.65;0.90;;;;;;;21.15;41.77;97167.47;5124558;28;20430;-62
2022/03/31 10:32:58;;;;;;;1.65;0.90;;;;;;;21.15;41.88;97170.25;5111524;28;20059;-62
2022/03/31 10:35:42;;;;;;;1.40;0.80;;;;;;;21.17;41.47;97163.03;5120616;28;20047;-62
2022/03/31 10:38:19;;;;;;;1.50;0.80;;;;;;;21.16;41.43;97169.81;5121837;28;20119;-62
2022/03/31 10:40:52;;;;;;;2.55;0.90;;;;;;;21.15;41.42;97168.25;5114485;27;20039;-62
2022/03/31 10:43:23;;;;;;;2.15;1.00;;;;;;;21.16;41.82;97169.03;5116556;28;20072;-62
2022/03/31 10:45:49;;;;;;;1.90;0.90;;;;;;;21.20;41.35;97160.59;5114914;28;20048;-62
2022/03/31 10:48:20;;;;;;;2.08;1.00;;;;;;;21.19;41.17;97162.59;5116026;28;20054;-62
2022/03/31 10:51:08;;;;;;;4.78;1.10;;;;;;;21.16;41.35;97167.03;5122977;28;20047;-62
2022/03/31 10:53:36;;;;;;;1.70;1.10;;;;;;;21.17;41.12;97165.81;5109957;27;20088;-62
2022/03/31 10:56:14;;;;;;;3.17;1.10;;;;;;;21.17;41.21;97171.38;5120780;28;20402;-62
2022/03/31 10:58:41;;;;;;;2.40;1.20;;;;;;;21.14;41.01;97163.09;5117491;28;20130;-62
2022/03/31 11:01:06;;;;;;;1.40;0.93;;;;;;;21.14;40.76;97163.09;5117813;28;20040;-62
2022/03/31 11:03:32;;;;;;;2.70;1.00;;;;;;;21.13;40.49;97165.09;5120000;28;20050;-62
2022/03/31 11:06:01;;;;;;;2.30;1.10;;;;;;;21.13;40.66;97173.44;5122453;28;20122;-62
2022/03/31 11:08:26;;;;;;;2.03;1.17;;;;;;;21.14;40.63;97165.88;5120673;28;20050;-62
2022/03/31 11:10:54;;;;;;;1.60;0.85;;;;;;;21.12;40.33;97163.53;5123831;28;20047;-62
2022/03/31 11:13:33;;;;;;;2.15;1.27;;;;;;;21.12;40.50;97162.75;5113253;27;20047;-62
2022/03/31 11:15:59;;;;;;;2.30;1.20;;;;;;;21.11;40.41;97153.63;5118805;27;20099;-63
2022/03/31 11:18:24;;;;;;;1.95;1.10;;;;;;;21.12;40.44;97163.53;5113599;27;20052;-61
2022/03/31 11:20:57;;;;;;;3.22;1.00;;;;;;;21.10;40.39;97163.19;5119159;28;20035;-62
2022/03/31 11:23:23;;;;;;;;;;;;;;;21.19;39.93;97168.16;5115064;27;20126;-62
2022/03/31 11:25:49;;;;;;;3.05;1.10;;;;;;;21.14;40.19;97158.31;5120869;28;20014;-62
2022/03/31 11:28:15;;;;;;;2.22;1.27;;;;;;;21.12;40.40;97160.75;5113805;27;20059;-62
2022/03/31 11:30:43;;;;;;;11.88;1.50;;;;;;;21.10;40.46;97149.31;5118642;28;20464;-62
2022/03/31 11:33:13;;;;;;;4.57;1.65;;;;;;;21.10;40.46;97154.06;5119699;28;20058;-62
2022/03/31 11:35:38;;;;;;;4.95;1.40;;;;;;;21.10;40.82;97149.31;5115488;28;20089;-63
2022/03/31 11:38:09;;;;;;;4.38;1.50;;;;;;;21.12;40.80;97154.41;5116254;28;20032;-62